Time;durP1;ratioP1;P1;durP2;ratioP2;P2;SDS_P1;SDS_P2;PMS_P1;PMS_P2;Temp;Humidity;BMP_temperature;BMP_pressure;BME280_temperature;BME280_humidity;BME280_pressure;Samples;Min_cycle;Max_cycle;Signal;HPM_P1;HPM_P2
2024/02/15 00:00:43;;;;;;;;;;;;;;;26.48;38.27;94696.19;5032854;28;7475;-38
2024/02/15 00:03:13;;;;;;;;;;;;;;;26.47;37.37;94695.44;5033576;28;7012;-55
2024/02/15 00:05:39;;;;;;;;;;;;;;;26.47;38.05;94689.19;5035425;28;6968;-55
2024/02/15 00:08:12;;;;;;;;;;;;;;;26.48;38.16;94690.69;5041950;28;8866;-55
2024/02/15 00:10:42;;;;;;;;;;;;;;;26.48;37.96;94694.19;5031990;28;7211;-55
2024/02/15 00:13:17;;;;;;;;;;;;;;;26.51;37.83;94703.47;5051096;28;7232;-53
2024/02/15 00:16:03;;;;;;;;;;;;;;;26.47;37.58;94700.25;5043896;28;9081;-51
2024/02/15 00:18:35;;;;;;;;;;;;;;;26.46;38.20;94701.47;5032464;28;9592;-50
2024/02/15 00:21:03;;;;;;;;;;;;;;;26.49;37.49;94703.22;5036900;28;7633;-49
2024/02/15 00:23:32;;;;;;;;;;;;;;;26.47;37.75;94703.72;5038866;28;7185;-51
2024/02/15 00:26:02;;;;;;;;;;;;;;;26.50;37.96;94710.22;5034041;28;7066;-52
2024/02/15 00:28:41;;;;;;;;;;;;;;;26.51;38.13;94714.50;5031545;28;7288;-51
2024/02/15 00:31:18;;;;;;;;;;;;;;;26.52;37.76;94714.00;5032551;28;7237;-51
2024/02/15 00:33:44;;;;;;;;;;;;;;;26.51;37.62;94718.00;5031326;28;7497;-52
2024/02/15 00:36:10;;;;;;;;;;;;;;;26.51;37.86;94723.50;5022993;28;7008;-51
2024/02/15 00:38:37;;;;;;;;;;;;;;;26.51;37.76;94712.47;5032634;28;7219;-50
2024/02/15 00:41:02;;;;;;;;;;;;;;;26.49;37.81;94714.28;5040922;28;7611;-52
2024/02/15 00:43:34;;;;;;;;;;;;;;;26.49;37.61;94717.03;5047884;28;7461;-51
2024/02/15 00:46:06;;;;;;;;;;;;;;;26.50;37.39;94716.50;5035137;28;7276;-52
2024/02/15 00:48:34;;;;;;;;;;;;;;;26.48;37.53;94721.78;5045194;28;9102;-52
2024/02/15 00:51:03;;;;;;;;;;;;;;;26.51;37.35;94722.78;5030122;28;7895;-49
2024/02/15 00:53:30;;;;;;;;;;;;;;;26.50;37.34;94724.03;5032065;28;8930;-51
2024/02/15 00:56:11;;;;;;;;;;;;;;;26.51;37.40;94712.47;5032592;28;7116;-51
2024/02/15 00:58:41;;;;;;;;;;;;;;;26.51;37.63;94717.25;5033202;28;7053;-49
2024/02/15 01:01:11;;;;;;;;;;;;;;;26.50;37.78;94707.47;5048198;28;7381;-51
2024/02/15 01:03:39;;;;;;;;;;;;;;;26.51;37.14;94717.25;5030814;28;7054;-53
2024/02/15 01:06:10;;;;;;;;;;;;;;;26.50;37.77;94707.47;5037372;28;7450;-52
2024/02/15 01:08:36;;;;;;;;;;;;;;;26.52;37.65;94711.22;5038216;28;7124;-51
2024/02/15 01:11:09;;;;;;;;;;;;;;;26.48;37.24;94698.97;5025250;28;7148;-51
2024/02/15 01:13:35;;;;;;;;;;;;;;;26.48;37.65;94705.25;5046670;28;7457;-52
2024/02/15 01:16:04;;;;;;;;;;;;;;;26.50;37.53;94716.50;5037634;28;7130;-51
2024/02/15 01:18:31;;;;;;;;;;;;;;;26.48;37.19;94701.72;5037012;28;7904;-49
2024/02/15 01:20:57;;;;;;;;;;;;;;;26.50;37.96;94710.22;5040651;28;6996;-52
2024/02/15 01:23:24;;;;;;;;;;;;;;;26.51;37.62;94717.25;5042361;28;8763;-37
2024/02/15 01:26:13;;;;;;;;;;;;;;;26.48;37.63;94718.28;5033577;28;7671;-37
2024/02/15 01:28:50;;;;;;;;;;;;;;;26.46;37.97;94713.28;5028729;28;7203;-37
2024/02/15 01:31:33;;;;;;;;;;;;;;;26.42;37.84;94710.03;5028166;28;7350;-37
2024/02/15 01:33:59;;;;;;;;;;;;;;;26.43;37.06;94717.03;5038380;28;7276;-37
2024/02/15 01:36:26;;;;;;;;;;;;;;;26.45;37.28;94709.00;5035232;28;7316;-37
2024/02/15 01:38:56;;;;;;;;;;;;;;;26.47;37.37;94716.78;5038316;28;7219;-37
2024/02/15 01:41:24;;;;;;;;;;;;;;;26.46;37.79;94702.25;5035030;28;8797;-37
2024/02/15 01:44:03;;;;;;;;;;;;;;;26.47;37.58;94712.00;5036491;28;9029;-39
2024/02/15 01:46:33;;;;;;;;;;;;;;;26.46;37.30;94710.50;5036727;28;7275;-40
2024/02/15 01:49:02;;;;;;;;;;;;;;;26.47;37.74;94703.00;5018154;28;7513;-40
2024/02/15 01:51:32;;;;;;;;;;;;;;;26.47;37.30;94703.00;5031542;28;9541;-40
2024/02/15 01:54:01;;;;;;;;;;;;;;;26.47;36.91;94698.22;5013037;28;7261;-40
2024/02/15 01:56:56;;;;;;;;;;;;;;;26.47;37.51;94700.25;5031838;28;9220;-42
2024/02/15 01:59:56;;;;;;;;;;;;;;;26.47;37.41;94706.47;5035442;28;8719;-40
2024/02/15 02:02:28;;;;;;;;;;;;;;;26.47;37.29;94691.97;5003377;28;7127;-40
2024/02/15 02:04:55;;;;;;;;;;;;;;;26.46;37.48;94698.72;5002929;28;7706;-40
2024/02/15 02:07:22;;;;;;;;;;;;;;;26.43;37.30;94683.94;5003992;28;9552;-39
2024/02/15 02:09:58;;;;;;;;;;;;;;;26.47;37.56;94686.44;4993181;28;9503;-40
2024/02/15 02:12:35;;;;;;;;;;;;;;;26.44;37.48;94681.94;4993133;28;9000;-40
2024/02/15 02:15:08;;;;;;;;;;;;;;;26.44;37.47;94684.69;4978285;28;6988;-39
2024/02/15 02:17:43;;;;;;;;;;;;;;;26.45;37.89;94684.19;5000319;28;8739;-40
2024/02/15 02:20:27;;;;;;;;;;;;;;;26.43;37.52;94685.94;4977483;28;7239;-41
2024/02/15 02:23:16;;;;;;;;;;;;;;;26.41;37.12;94680.94;4985813;28;7209;-40
2024/02/15 02:25:43;;;;;;;;;;;;;;;26.38;37.63;94676.44;4994026;28;6950;-40
2024/02/15 02:28:12;;;;;;;;;;;;;;;26.42;37.12;94670.66;4992819;28;7838;-40
2024/02/15 02:30:41;;;;;;;;;;;;;;;26.41;37.43;94674.66;4988403;28;7071;-40
2024/02/15 02:33:22;;;;;;;;;;;;;;;26.40;37.59;94675.94;4999136;28;7233;-39
2024/02/15 02:35:48;;;;;;;;;;;;;;;26.41;37.54;94672.66;4989980;28;7071;-39
2024/02/15 02:38:16;;;;;;;;;;;;;;;26.41;37.15;94669.16;5005281;28;7263;-41
2024/02/15 02:40:44;;;;;;;;;;;;;;;26.42;37.35;94667.91;5037180;28;7062;-40
2024/02/15 02:43:13;;;;;;;;;;;;;;;26.41;37.38;94658.88;5045539;28;9154;-39
2024/02/15 02:45:41;;;;;;;;;;;;;;;26.43;37.63;94659.13;5017533;28;7372;-40
2024/02/15 02:48:08;;;;;;;;;;;;;;;26.41;37.29;94658.13;5017654;28;7091;-39
2024/02/15 02:50:34;;;;;;;;;;;;;;;26.42;37.10;94654.13;5032730;28;6979;-40
2024/02/15 02:53:02;;;;;;;;;;;;;;;26.40;37.66;94653.88;5037849;28;9106;-39
2024/02/15 02:55:28;;;;;;;;;;;;;;;26.43;37.14;94661.13;5026152;28;7010;-41
2024/02/15 02:57:54;;;;;;;;;;;;;;;26.41;37.41;94652.59;5032496;28;7016;-40
2024/02/15 03:00:24;;;;;;;;;;;;;;;26.41;37.60;94655.38;5035442;28;7743;-40
2024/02/15 03:02:51;;;;;;;;;;;;;;;26.39;37.37;94653.13;5032119;28;8834;-40
2024/02/15 03:05:20;;;;;;;;;;;;;;;26.41;37.30;94655.38;5031766;28;8044;-40
2024/02/15 03:07:46;;;;;;;;;;;;;;;26.36;37.77;94645.84;5025037;28;7135;-39
2024/02/15 03:10:14;;;;;;;;;;;;;;;26.39;37.22;94650.38;5024190;28;9149;-41
2024/02/15 03:12:46;;;;;;;;;;;;;;;26.40;37.14;94651.13;5033804;28;6994;-40
2024/02/15 03:15:16;;;;;;;;;;;;;;;26.38;37.55;94643.34;5037493;28;8805;-40
2024/02/15 03:17:44;;;;;;;;;;;;;;;26.41;37.76;94644.34;5033707;28;8475;-39
2024/02/15 03:20:19;;;;;;;;;;;;;;;26.41;37.23;94642.34;5035075;28;7125;-40
2024/02/15 03:23:00;;;;;;;;;;;;;;;26.40;37.29;94640.09;5018821;28;7001;-41
2024/02/15 03:25:28;;;;;;;;;;;;;;;26.43;37.18;94639.06;5017635;28;7419;-41
2024/02/15 03:27:58;;;;;;;;;;;;;;;26.40;37.49;94637.34;5042192;28;8744;-40
2024/02/15 03:30:30;;;;;;;;;;;;;;;26.37;37.34;94638.34;5031224;28;9403;-39
2024/02/15 03:32:57;;;;;;;;;;;;;;;26.36;37.95;94634.81;5044216;28;7007;-40
2024/02/15 03:35:28;;;;;;;;;;;;;;;26.38;36.95;94637.81;5037233;28;9904;-40
2024/02/15 03:37:56;;;;;;;;;;;;;;;26.38;37.71;94635.06;5034576;28;7345;-40
2024/02/15 03:40:26;;;;;;;;;;;;;;;26.40;37.47;94627.06;5034856;28;6994;-40
2024/02/15 03:42:54;;;;;;;;;;;;;;;26.41;37.23;94630.53;5035615;28;9081;-40
2024/02/15 03:45:31;;;;;;;;;;;;;;;26.40;37.74;94631.81;5013556;28;7185;-40
2024/02/15 03:48:00;;;;;;;;;;;;;;;26.39;37.59;94624.78;5041779;28;7113;-42
2024/02/15 03:50:33;;;;;;;;;;;;;;;26.40;37.55;94634.56;5033919;28;8867;-40
2024/02/15 03:53:24;;;;;;;;;;;;;;;26.40;37.34;94629.06;5017294;28;7528;-40
2024/02/15 03:56:00;;;;;;;;;;;;;;;26.38;37.59;94629.56;5032540;28;7029;-41
2024/02/15 03:58:32;;;;;;;;;;;;;;;26.38;37.11;94628.81;5034420;28;9117;-41
2024/02/15 04:01:27;;;;;;;;;;;;;;;26.37;37.04;94627.31;5039543;28;7085;-41
2024/02/15 04:03:58;;;;;;;;;;;;;;;26.37;37.55;94624.56;5039389;28;9038;-41
2024/02/15 04:06:27;;;;;;;;;;;;;;;26.35;37.22;94624.31;5033330;28;7240;-41
2024/02/15 04:09:07;;;;;;;;;;;;;;;26.35;37.73;94616.78;5033062;28;7429;-40
2024/02/15 04:11:33;;;;;;;;;;;;;;;26.35;37.67;94627.81;5029639;28;7937;-43
2024/02/15 04:14:06;;;;;;;;;;;;;;;26.35;37.40;94630.59;5033136;28;8730;-42
2024/02/15 04:16:38;;;;;;;;;;;;;;;26.33;37.46;94624.06;5035618;28;7283;-40
2024/02/15 04:19:11;;;;;;;;;;;;;;;26.31;37.00;94630.09;5032158;28;7261;-40
2024/02/15 04:21:43;;;;;;;;;;;;;;;26.31;37.51;94637.63;5037184;28;9434;-41
2024/02/15 04:24:21;;;;;;;;;;;;;;;26.28;37.89;94633.13;5026742;28;7256;-40
2024/02/15 04:26:51;;;;;;;;;;;;;;;26.31;37.62;94637.63;5014950;28;7090;-41
2024/02/15 04:29:22;;;;;;;;;;;;;;;26.29;37.27;94631.88;5016442;28;7349;-40
2024/02/15 04:31:57;;;;;;;;;;;;;;;26.27;37.44;94624.13;5032689;28;8776;-40
2024/02/15 04:34:26;;;;;;;;;;;;;;;26.30;37.48;94625.84;5019728;28;9095;-41
2024/02/15 04:36:55;;;;;;;;;;;;;;;26.32;37.67;94622.59;5039322;28;9079;-41
2024/02/15 04:39:31;;;;;;;;;;;;;;;26.30;37.00;94619.56;5033185;28;7483;-41
2024/02/15 04:42:11;;;;;;;;;;;;;;;26.31;37.46;94621.09;5045277;28;9161;-42
2024/02/15 04:44:40;;;;;;;;;;;;;;;26.32;37.40;94614.31;5052786;28;6996;-41
2024/02/15 04:47:18;;;;;;;;;;;;;;;26.32;37.02;94622.59;5030855;28;9260;-41
2024/02/15 04:49:45;;;;;;;;;;;;;;;26.33;37.83;94618.56;5032921;28;8790;-40
2024/02/15 04:52:18;;;;;;;;;;;;;;;26.32;36.95;94611.56;5038890;28;9411;-36
2024/02/15 04:55:05;;;;;;;;;;;;;;;26.30;37.53;94614.06;5052293;28;8042;-36
2024/02/15 04:57:40;;;;;;;;;;;;;;;26.33;37.40;94621.31;5038052;28;7229;-36
2024/02/15 05:00:25;;;;;;;;;;;;;;;26.31;37.31;94616.31;5044482;28;9097;-36
2024/02/15 05:03:11;;;;;;;;;;;;;;;26.31;37.26;94610.81;5036722;28;6989;-36
2024/02/15 05:05:40;;;;;;;;;;;;;;;26.31;37.20;94610.81;5039683;28;8733;-36
2024/02/15 05:08:22;;;;;;;;;;;;;;;26.30;37.36;94603.78;5050593;28;9352;-36
2024/02/15 05:10:48;;;;;;;;;;;;;;;26.34;37.47;94617.31;5033856;28;8731;-36
2024/02/15 05:13:16;;;;;;;;;;;;;;;26.31;37.36;94607.28;5035103;28;9261;-36
2024/02/15 05:15:42;;;;;;;;;;;;;;;26.31;37.08;94608.06;5036581;28;7294;-36
2024/02/15 05:18:08;;;;;;;;;;;;;;;26.30;36.95;94603.78;5037297;28;6981;-36
2024/02/15 05:20:40;;;;;;;;;;;;;;;26.30;37.59;94611.28;5037329;28;9052;-36
2024/02/15 05:23:08;;;;;;;;;;;;;;;26.30;36.93;94612.06;5035678;28;7209;-36
2024/02/15 05:25:35;;;;;;;;;;;;;;;26.29;37.82;94607.06;5045387;28;7242;-36
2024/02/15 05:28:10;;;;;;;;;;;;;;;26.30;36.93;94601.03;5035865;28;7408;-36
2024/02/15 05:31:20;;;;;;;;;;;;;;;26.31;37.27;94604.53;5040868;28;7427;-36
2024/02/15 05:33:52;;;;;;;;;;;;;;;26.30;37.42;94606.53;4976511;28;7247;-36
2024/02/15 05:36:20;;;;;;;;;;;;;;;26.30;37.56;94606.53;4975211;28;7265;-36
2024/02/15 05:38:47;;;;;;;;;;;;;;;26.31;37.02;94607.28;4973868;28;7158;-36
2024/02/15 05:41:32;;;;;;;;;;;;;;;26.30;37.29;94603.03;4988591;28;8400;-36
2024/02/15 05:44:09;;;;;;;;;;;;;;;26.29;37.52;94602.31;4975407;28;7230;-36
2024/02/15 05:46:54;;;;;;;;;;;;;;;26.30;36.98;94603.03;4994699;28;9229;-36
2024/02/15 05:49:23;;;;;;;;;;;;;;;26.29;37.11;94596.78;4956329;28;7271;-36
2024/02/15 05:51:53;;;;;;;;;;;;;;;26.31;37.71;94599.78;4972299;28;7238;-36
2024/02/15 05:54:19;;;;;;;;;;;;;;;26.33;37.23;94602.00;4975919;28;7303;-36
2024/02/15 05:56:51;;;;;;;;;;;;;;;26.31;37.16;94594.25;4973419;28;9137;-36
2024/02/15 05:59:20;;;;;;;;;;;;;;;26.32;37.63;94589.50;4975921;28;9160;-36
2024/02/15 06:01:50;;;;;;;;;;;;;;;26.31;36.72;94599.03;4979937;28;9118;-49
2024/02/15 06:04:30;;;;;;;;;;;;;;;26.29;37.14;94596.03;5004190;28;7074;-52
2024/02/15 06:07:00;;;;;;;;;;;;;;;26.25;37.22;94590.03;5038650;28;7247;-52
2024/02/15 06:09:37;;;;;;;;;;;;;;;26.23;37.49;94587.78;5029758;28;7087;-49
2024/02/15 06:12:03;;;;;;;;;;;;;;;26.24;37.45;94588.53;5035616;28;8696;-51
2024/02/15 06:14:28;;;;;;;;;;;;;;;26.22;37.45;94582.78;5038508;28;8942;-52
2024/02/15 06:17:09;;;;;;;;;;;;;;;26.25;37.76;94579.00;5029326;28;9444;-53
2024/02/15 06:19:34;;;;;;;;;;;;;;;26.26;37.57;94580.50;5039649;28;9149;-51
2024/02/15 06:22:04;;;;;;;;;;;;;;;26.25;37.27;94574.25;5020589;28;7356;-52
2024/02/15 06:24:34;;;;;;;;;;;;;;;26.24;38.35;94578.25;5031905;28;9173;-53
2024/02/15 06:27:06;;;;;;;;;;;;;;;26.20;37.47;94572.25;5039572;28;7889;-52
2024/02/15 06:41:05;;;;;;;;;;;;;;;26.23;37.47;94581.53;5023941;28;7144;-53
2024/02/15 06:43:33;;;;;;;;;;;;;;;26.23;38.04;94582.25;5010613;28;8816;-53
2024/02/15 06:45:59;;;;;;;;;;;;;;;26.19;37.49;94573.50;5000472;28;9047;-51
2024/02/15 06:48:27;;;;;;;;;;;;;;;26.23;37.44;94573.25;5019135;28;9213;-51
2024/02/15 06:50:53;;;;;;;;;;;;;;;26.25;37.60;94573.50;4991400;28;9227;-52
2024/02/15 06:53:20;;;;;;;;;;;;;;;26.26;37.45;94574.97;5017228;28;8736;-50
2024/02/15 06:55:50;;;;;;;;;;;;;;;26.27;37.82;94570.97;5010320;28;7013;-50
2024/02/15 06:58:20;;;;;;;;;;;;;;;26.28;37.73;94575.22;5009273;28;7485;-53
2024/02/15 07:00:56;;;;;;;;;;;;;;;26.27;38.05;94566.22;5011191;28;7251;-53
2024/02/15 07:03:23;;;;;;;;;;;;;;;26.29;38.15;94566.44;5009061;28;7317;-51
2024/02/15 07:06:18;;;;;;;;;;;;;;;26.28;37.97;94566.94;4993729;28;7081;-50
2024/02/15 07:09:04;;;;;;;;;;;;;;;26.27;38.23;94576.50;4901517;29;8838;-53
2024/02/15 07:11:34;;;;;;;;;;;;;;;26.25;38.15;94579.75;4896167;29;7054;-52
2024/02/15 07:14:00;;;;;;;;;;;;;;;26.30;38.13;94578.97;4902510;29;7328;-37
2024/02/15 07:16:27;;;;;;;;;;;;;;;26.31;37.91;94576.97;4904381;29;7399;-37
2024/02/15 07:18:53;;;;;;;;;;;;;;;26.31;37.88;94569.44;4914918;29;9966;-37
2024/02/15 07:21:29;;;;;;;;;;;;;;;26.30;37.74;94565.19;4933568;28;8756;-37
2024/02/15 07:23:56;;;;;;;;;;;;;;;26.33;37.90;94574.44;4934286;28;7483;-37
2024/02/15 07:26:27;;;;;;;;;;;;;;;26.35;38.31;94578.19;4918942;29;9088;-37
2024/02/15 07:28:57;;;;;;;;;;;;;;;26.37;37.47;94585.94;4925526;29;8767;-38
2024/02/15 07:31:27;;;;;;;;;;;;;;;26.35;37.84;94578.19;4930840;28;9217;-37
2024/02/15 07:33:53;;;;;;;;;;;;;;;26.32;37.43;94567.44;4934730;28;7253;-37
2024/02/15 07:36:23;;;;;;;;;;;;;;;26.35;38.04;94564.41;4934669;28;7476;-37
2024/02/15 07:38:53;;;;;;;;;;;;;;;26.35;38.26;94563.66;4937485;28;7006;-37
2024/02/15 07:41:22;;;;;;;;;;;;;;;26.34;37.41;94562.16;4933951;28;7219;-37
2024/02/15 07:43:49;;;;;;;;;;;;;;;26.37;38.04;94566.63;4937161;28;7100;-37
2024/02/15 07:46:24;;;;;;;;;;;;;;;26.35;38.20;94558.13;5007480;28;9249;-37
2024/02/15 07:49:03;;;;;;;;;;;;;;;26.37;37.33;94563.88;5029858;28;7436;-37
2024/02/15 07:51:35;;;;;;;;;;;;;;;26.36;37.25;94554.13;5037812;28;7005;-37
2024/02/15 07:54:34;;;;;;;;;;;;;;;26.37;38.04;94558.38;5035880;28;7243;-37
2024/02/15 07:57:06;;;;;;;;;;;;;;;26.35;38.13;94552.63;4941854;28;8989;-37
2024/02/15 07:59:33;;;;;;;;;;;;;;;26.38;37.93;94544.06;4951247;28;7059;-37
2024/02/15 08:01:59;;;;;;;;;;;;;;;26.36;37.50;94545.84;4953625;28;7263;-37
2024/02/15 08:04:40;;;;;;;;;;;;;;;26.37;37.80;94547.34;4953249;28;7024;-38
2024/02/15 08:07:10;;;;;;;;;;;;;;;26.40;37.58;94540.81;4932893;28;9326;-37
2024/02/15 08:09:41;;;;;;;;;;;;;;;26.41;37.80;94534.00;4949688;28;8755;-37
2024/02/15 08:12:14;;;;;;;;;;;;;;;26.40;38.00;94533.28;4931924;28;7127;-38
2024/02/15 08:14:50;;;;;;;;;;;;;;;26.42;37.84;94527.25;4952778;28;7081;-37
2024/02/15 08:17:26;;;;;;;;;;;;;;;26.41;37.65;94520.22;4966552;28;7021;-37
2024/02/15 08:20:08;;;;;;;;;;;;;;;26.42;37.71;94524.50;4969570;28;8651;-37
2024/02/15 08:22:34;;;;;;;;;;;;;;;26.41;37.29;94520.22;4948739;28;9227;-37
2024/02/15 08:25:15;;;;;;;;;;;;;;;26.44;37.56;94516.44;4951448;28;6973;-37
2024/02/15 08:27:45;;;;;;;;;;;;;;;26.45;38.03;94501.38;4951997;28;9094;-37
2024/02/15 08:30:20;;;;;;;;;;;;;;;26.46;37.70;94500.13;4950015;28;7069;-37
2024/02/15 08:32:47;;;;;;;;;;;;;;;26.43;37.58;94501.16;4955612;28;7088;-37
2024/02/15 08:35:14;;;;;;;;;;;;;;;26.44;37.96;94499.91;5034172;28;8649;-37
2024/02/15 08:37:42;;;;;;;;;;;;;;;26.43;38.15;94493.63;5030546;28;8090;-37
2024/02/15 08:40:25;;;;;;;;;;;;;;;26.44;38.57;94492.38;5011668;28;9039;-37
2024/02/15 08:42:51;;;;;;;;;;;;;;;26.44;37.96;94483.34;5030549;28;7257;-37
2024/02/15 08:45:19;;;;;;;;;;;;;;;26.45;37.74;94482.84;5030806;28;7210;-37
2024/02/15 08:47:49;;;;;;;;;;;;;;;26.44;37.48;94481.34;5038279;28;9024;-37
2024/02/15 08:50:16;;;;;;;;;;;;;;;26.44;37.52;94475.84;5035957;28;7131;-37
2024/02/15 08:52:47;;;;;;;;;;;;;;;26.45;37.60;94469.03;5030013;28;6939;-37
2024/02/15 08:55:41;;;;;;;;;;;;;;;26.47;37.78;94466.50;5036219;28;7070;-37
2024/02/15 08:58:21;;;;;;;;;;;;;;;26.45;38.25;94457.25;4930233;29;7540;-37
2024/02/15 09:00:48;;;;;;;;;;;;;;;26.48;38.12;94450.72;4934670;29;7417;-37
2024/02/15 09:03:34;;;;;;;;;;;;;;;26.49;37.81;94455.72;4916447;29;7253;-37
2024/02/15 09:06:10;;;;;;;;;;;;;;;26.52;38.44;94456.69;4917179;29;8940;-37
2024/02/15 09:08:46;;;;;;;;;;;;;;;26.52;38.40;94460.22;4929807;29;9270;-37
2024/02/15 09:11:13;;;;;;;;;;;;;;;26.52;38.84;94451.94;4931659;29;7355;-37
2024/02/15 09:13:51;;;;;;;;;;;;;;;26.54;38.30;94448.66;4933493;29;7362;-37
2024/02/15 09:16:17;;;;;;;;;;;;;;;26.53;37.84;94442.41;4931724;29;8846;-37
2024/02/15 09:18:45;;;;;;;;;;;;;;;26.55;38.25;94439.13;4914250;29;6977;-37
2024/02/15 09:21:14;;;;;;;;;;;;;;;26.56;38.27;94441.34;4912983;29;7138;-37
2024/02/15 09:23:41;;;;;;;;;;;;;;;26.57;38.51;94436.59;4896808;29;7683;-37
2024/02/15 09:26:09;;;;;;;;;;;;;;;26.57;38.44;94436.59;4914902;29;9188;-38
2024/02/15 09:28:40;;;;;;;;;;;;;;;26.57;38.49;94428.31;4917050;29;9567;-37
2024/02/15 09:31:15;;;;;;;;;;;;;;;26.58;37.97;94427.03;4933813;29;7297;-37
2024/02/15 09:33:42;;;;;;;;;;;;;;;26.56;38.08;94422.06;4918090;29;9032;-54
2024/02/15 09:36:08;;;;;;;;;;;;;;;26.57;38.35;94411.78;5016851;28;9195;-55
2024/02/15 09:38:37;;;;;;;;;;;;;;;26.60;37.98;94421.78;5042418;28;7034;-53
2024/02/15 09:41:53;;;;;;;;;;;;;;;26.62;37.81;94413.72;5035336;28;6985;-53
2024/02/15 09:44:29;;;;;;;;;;;;;;;26.61;37.84;94421.25;4995364;28;7147;-52
2024/02/15 09:47:32;;;;;;;;;;;;;;;26.59;38.27;94426.53;5010235;28;9034;-53
2024/02/15 09:50:32;;;;;;;;;;;;;;;26.58;37.76;94424.28;4936885;29;8054;-54
2024/02/15 09:53:02;;;;;;;;;;;;;;;26.53;38.07;94419.59;4864394;29;7098;-54
2024/02/15 09:55:42;;;;;;;;;;;;;;;26.54;38.20;94419.06;4880230;29;7014;-51
2024/02/15 09:58:09;;;;;;;;;;;;;;;26.53;37.52;94420.34;4880548;29;8646;-52
2024/02/15 10:00:38;;;;;;;;;;;;;;;26.52;37.98;94420.84;4880889;29;9113;-52
2024/02/15 10:03:07;;;;;;;;;;;;;;;26.47;38.02;94414.09;4880167;29;7252;-53
2024/02/15 10:05:33;;;;;;;;;;;;;;;26.48;37.93;94420.38;4864421;29;8871;-54
2024/02/15 10:08:00;;;;;;;;;;;;;;;26.47;38.57;94416.88;4861485;29;7988;-53
2024/02/15 10:10:27;;;;;;;;;;;;;;;26.50;37.76;94418.59;4871147;29;7244;-54
2024/02/15 10:13:14;;;;;;;;;;;;;;;26.53;37.87;94425.84;4863977;29;7208;-54
2024/02/15 10:15:51;;;;;;;;;;;;;;;26.55;37.93;94423.31;4879682;29;9134;-55
2024/02/15 10:18:20;;;;;;;;;;;;;;;26.52;37.45;94416.06;4872003;29;9061;-55
2024/02/15 10:21:23;;;;;;;;;;;;;;;26.52;37.73;94416.06;4880042;29;7380;-55
2024/02/15 10:24:08;;;;;;;;;;;;;;;26.53;37.61;94419.59;4879435;29;9002;-55
2024/02/15 10:26:36;;;;;;;;;;;;;;;26.54;37.45;94418.31;4933075;29;7286;-55
2024/02/15 10:29:20;;;;;;;;;;;;;;;26.53;37.30;94403.03;4972870;28;6993;-55
2024/02/15 10:32:00;;;;;;;;;;;;;;;26.52;37.60;94410.56;5035015;28;7001;-55
2024/02/15 10:34:30;;;;;;;;;;;;;;;26.51;37.66;94413.84;4998363;28;7299;-55
2024/02/15 10:37:12;;;;;;;;;;;;;;;26.53;37.71;94414.81;5017797;28;7064;-55
2024/02/15 10:39:38;;;;;;;;;;;;;;;26.54;37.96;94413.53;5044050;28;7301;-55
2024/02/15 10:42:10;;;;;;;;;;;;;;;26.55;38.07;94415.06;5033865;28;7751;-39
2024/02/15 10:44:38;;;;;;;;;;;;;;;26.52;37.32;94410.56;5043285;28;7289;-42
2024/02/15 10:47:14;;;;;;;;;;;;;;;26.56;37.43;94410.25;5051757;28;8696;-40
2024/02/15 10:49:47;;;;;;;;;;;;;;;26.57;37.24;94409.75;5028640;28;7041;-42
2024/02/15 10:52:28;;;;;;;;;;;;;;;26.58;37.82;94413.25;5037456;28;7237;-42
2024/02/15 10:55:04;;;;;;;;;;;;;;;26.60;37.88;94411.47;5026640;28;7363;-41
2024/02/15 10:57:37;;;;;;;;;;;;;;;26.61;37.63;94410.22;5022810;28;9512;-41
2024/02/15 11:00:43;;;;;;;;;;;;;;;26.65;37.47;94396.13;5018169;28;8957;-40
2024/02/15 11:03:41;;;;;;;;;;;;;;;26.67;37.63;94399.13;5033584;28;9025;-43
2024/02/15 11:06:10;;;;;;;;;;;;;;;26.66;37.84;94389.34;5006657;28;7108;-42
2024/02/15 11:08:51;;;;;;;;;;;;;;;26.68;37.38;94384.81;4991250;28;9277;-42
2024/02/15 11:11:28;;;;;;;;;;;;;;;26.68;37.66;94384.81;5013374;28;9178;-41
2024/02/15 11:14:46;;;;;;;;;;;;;;;26.69;37.51;94380.78;4995070;28;8401;-41
2024/02/15 11:17:37;;;;;;;;;;;;;;;26.70;37.58;94387.06;4989425;28;7194;-42
2024/02/15 11:20:11;;;;;;;;;;;;;;;26.70;36.87;94387.06;4979579;28;9127;-42
2024/02/15 11:22:38;;;;;;;;;;;;;;;26.71;37.80;94386.53;4992967;28;7318;-40
2024/02/15 11:25:08;;;;;;;;;;;;;;;26.70;37.72;94376.03;4993898;28;8866;-40
2024/02/15 11:27:38;;;;;;;;;;;;;;;26.69;37.34;94377.28;5005791;28;7040;-41
2024/02/15 11:30:15;;;;;;;;;;;;;;;26.68;37.78;94376.53;4974908;28;6985;-41
2024/02/15 11:32:50;;;;;;;;;;;;;;;26.71;37.68;94378.25;5008256;28;8124;-42
2024/02/15 11:35:18;;;;;;;;;;;;;;;26.72;37.88;94373.50;5012106;28;9179;-40
2024/02/15 11:40:18;;;;;;;;;;;;;;;26.75;37.23;94378.00;5034244;28;6996;-41
2024/02/15 11:42:45;;;;;;;;;;;;;;;26.73;37.95;94363.97;5038784;28;9285;-41
2024/02/15 11:45:19;;;;;;;;;;;;;;;26.76;37.52;94371.22;5033113;28;7036;-41
2024/02/15 11:47:53;;;;;;;;;;;;;;;26.77;37.85;94372.72;5034312;28;7033;-40
2024/02/15 11:50:21;;;;;;;;;;;;;;;26.78;37.33;94365.91;5040163;28;8828;-41
2024/02/15 11:52:49;;;;;;;;;;;;;;;26.77;37.24;94361.69;5030788;28;7063;-42
2024/02/15 11:55:37;;;;;;;;;;;;;;;26.80;37.52;94363.38;5037903;28;7324;-42
2024/02/15 11:58:21;;;;;;;;;;;;;;;26.80;37.35;94363.38;5013817;28;7254;-41
2024/02/15 12:19:00;;;;;;;;;;;;;;;26.83;37.29;94332.00;4999238;28;7278;-44
2024/02/15 12:21:27;;;;;;;;;;;;;;;26.83;37.36;94341.03;4995398;28;7827;-42
2024/02/15 12:23:55;;;;;;;;;;;;;;;26.84;37.77;94334.22;5012048;28;7181;-43
2024/02/15 12:26:41;;;;;;;;;;;;;;;26.88;37.82;94336.72;5012407;28;7083;-42
2024/02/15 12:29:47;;;;;;;;;;;;;;;26.88;37.54;94326.41;5007975;28;6992;-43
2024/02/15 12:32:21;;;;;;;;;;;;;;;26.87;37.12;94324.16;5011537;28;7186;-42
2024/02/15 12:35:16;;;;;;;;;;;;;;;26.86;37.29;94323.41;5012058;28;9006;-41
2024/02/15 12:38:01;;;;;;;;;;;;;;;26.92;37.40;94317.84;5010418;28;9012;-42
2024/02/15 12:40:32;;;;;;;;;;;;;;;26.92;37.13;94310.28;4990506;28;9452;-42
2024/02/15 12:42:59;;;;;;;;;;;;;;;26.96;37.61;94304.47;4988650;28;6983;-41
2024/02/15 12:45:28;;;;;;;;;;;;;;;26.94;37.15;94307.03;4990898;28;8786;-41
2024/02/15 12:48:05;;;;;;;;;;;;;;;26.97;37.47;94305.22;4978850;28;7510;-42
2024/02/15 12:50:50;;;;;;;;;;;;;;;27.01;37.17;94300.91;5012952;28;7001;-42
2024/02/15 12:53:35;;;;;;;;;;;;;;;27.02;37.55;94285.06;5033391;28;7309;-41
2024/02/15 12:56:06;;;;;;;;;;;;;;;27.02;37.43;94290.59;5030372;28;7414;-42
2024/02/15 12:58:49;;;;;;;;;;;;;;;27.03;37.51;94281.06;5033498;28;7220;-42
2024/02/15 13:01:39;;;;;;;;;;;;;;;27.08;37.44;94274.72;5038136;28;8052;-42
2024/02/15 13:04:08;;;;;;;;;;;;;;;27.08;37.62;94267.16;5035743;28;7088;-42
2024/02/15 13:07:19;;;;;;;;;;;;;;;27.10;37.44;94270.16;5045828;28;7242;-43
2024/02/15 13:09:46;;;;;;;;;;;;;;;27.08;37.37;94267.16;5035206;28;6920;-42
2024/02/15 13:12:14;;;;;;;;;;;;;;;27.10;37.04;94270.16;5030816;28;7931;-57
2024/02/15 13:14:41;;;;;;;;;;;;;;;27.07;37.52;94265.69;5032330;28;6972;-58
2024/02/15 13:17:07;;;;;;;;;;;;;;;27.08;37.19;94267.16;5046275;28;7144;-58
2024/02/15 13:19:35;;;;;;;;;;;;;;;27.07;37.56;94264.94;5038712;28;7414;-58
2024/02/15 13:22:01;;;;;;;;;;;;;;;27.07;37.14;94265.69;5028482;28;9269;-58
2024/02/15 13:24:27;;;;;;;;;;;;;;;27.12;37.30;94273.13;5030154;28;8431;-58
2024/02/15 13:27:05;;;;;;;;;;;;;;;27.13;37.37;94265.59;5044570;28;7628;-58
2024/02/15 13:29:32;;;;;;;;;;;;;;;27.13;37.12;94266.34;5040663;28;7263;-58
2024/02/15 13:31:59;;;;;;;;;;;;;;;27.11;37.36;94255.09;5041271;28;8736;-58
2024/02/15 13:34:25;;;;;;;;;;;;;;;27.12;37.10;94261.34;5047914;28;9012;-57
2024/02/15 13:36:51;;;;;;;;;;;;;;;27.13;37.26;94257.31;5033361;28;7073;-58
2024/02/15 13:39:21;;;;;;;;;;;;;;;27.16;36.97;94262.56;5041760;28;9261;-57
2024/02/15 13:41:49;;;;;;;;;;;;;;;27.18;37.18;94259.25;5052183;28;7163;-58
2024/02/15 13:44:16;;;;;;;;;;;;;;;27.15;37.10;94252.00;5040301;28;7058;-58
2024/02/15 13:46:44;;;;;;;;;;;;;;;27.13;37.05;94251.78;5034953;28;7196;-57
2024/02/15 13:49:21;;;;;;;;;;;;;;;27.14;37.13;94237.47;5036039;28;8018;-57
2024/02/15 13:52:34;;;;;;;;;;;;;;;27.18;37.67;94243.44;5032042;28;6982;-57
2024/02/15 13:55:12;;;;;;;;;;;;;;;27.17;37.23;94233.66;5014644;28;7269;-57
2024/02/15 13:58:14;;;;;;;;;;;;;;;27.17;37.09;94230.91;4995463;28;8844;-58
2024/02/15 14:01:04;;;;;;;;;;;;;;;27.18;36.88;94226.13;4919795;29;9217;-58
2024/02/15 14:03:41;;;;;;;;;;;;;;;27.14;36.90;94220.91;4903190;29;9021;-57